Terminal Aerodrome Forecast
Issued by NWS

Home | Current Version | Previous Version | Text Only | Print | Product List | Glossary On
Versions: 1 2 3 4 5 6 7 8 9 10 11 12 13 14 15 16 17 18 19 20 21 22 23
000
FTUS43 KGRR 010900 AAA
TAFAZO
TAF AMD
KAZO 010935Z 0110/0206 05005KT 1SM -SN BR BKN005 OVC013
     FM011200 07013G22KT 1/2SM SN BLSN OVC006
     FM011800 06017G27KT 1/4SM +SN BLSN VV004=

USA.gov is the U.S. government's official web portal to all federal, state and local government web resources and services.